Time;durP1;ratioP1;P1;durP2;ratioP2;P2;SDS_P1;SDS_P2;PMS_P1;PMS_P2;Temp;Humidity;BMP_temperature;BMP_pressure;BME280_temperature;BME280_humidity;BME280_pressure;Samples;Min_cycle;Max_cycle;Signal;HPM_P1;HPM_P2
2023/01/05 07:46:03;;;;;;;7.57;1.27;;;;;;;8.86;100.00;99560.97;5135310;27;20403;-77
2023/01/05 07:48:30;;;;;;;6.72;1.40;;;;;;;8.96;100.00;99571.69;5145873;27;20496;-77
2023/01/05 07:51:01;;;;;;;7.78;1.95;;;;;;;8.89;100.00;99554.38;5139579;27;20051;-78
2023/01/05 07:53:27;;;;;;;19.00;2.83;;;;;;;9.07;100.00;99582.22;5145926;27;20095;-78
2023/01/05 07:55:58;;;;;;;8.57;1.48;;;;;;;8.98;100.00;99569.66;5149348;27;20039;-78
2023/01/05 07:58:25;;;;;;;8.40;1.67;;;;;;;9.16;100.00;99591.22;5148364;27;20053;-78
2023/01/05 08:00:51;;;;;;;8.30;1.75;;;;;;;9.08;100.00;99592.06;5142950;27;20058;-78
2023/01/05 08:03:19;;;;;;;6.65;1.58;;;;;;;9.06;100.00;99577.78;5139037;27;20043;-78
2023/01/05 08:05:47;;;;;;;8.93;2.22;;;;;;;9.14;100.00;99591.41;5140736;27;20039;-78
2023/01/05 08:08:14;;;;;;;7.13;1.70;;;;;;;9.06;100.00;99571.53;5148514;27;20058;-78
2023/01/05 08:10:42;;;;;;;7.03;1.55;;;;;;;9.20;100.00;99589.91;5149661;27;20054;-78
2023/01/05 08:15:56;;;;;;;7.80;2.80;;;;;;;9.11;100.00;99550.19;5147936;27;20054;-78
2023/01/05 08:18:24;;;;;;;11.27;2.85;;;;;;;9.11;100.00;99582.72;5146567;27;20047;-78
2023/01/05 08:20:52;;;;;;;11.57;2.80;;;;;;;9.19;100.00;99590.91;5139190;27;20054;-78
2023/01/05 08:23:19;;;;;;;7.90;2.63;;;;;;;9.23;100.00;99580.56;5146055;27;20050;-78
2023/01/05 08:25:46;;;;;;;4.55;1.35;;;;;;;9.13;100.00;99567.16;5148863;27;20466;-78
2023/01/05 08:28:12;;;;;;;4.50;1.17;;;;;;;9.28;100.00;99599.91;5148915;27;20050;-78
2023/01/05 08:30:39;;;;;;;5.32;1.23;;;;;;;9.16;100.00;99569.53;5148638;27;20488;-78
2023/01/05 08:33:05;;;;;;;7.22;2.20;;;;;;;9.18;100.00;99581.91;5141869;27;20051;-78
2023/01/05 08:35:33;;;;;;;7.38;2.08;;;;;;;9.35;100.00;99615.34;5139539;27;20050;-78
2023/01/05 08:38:00;;;;;;;7.72;1.67;;;;;;;9.17;100.00;99588.34;5128096;27;20051;-78
2023/01/05 08:40:26;;;;;;;8.85;1.52;;;;;;;9.32;100.00;99612.97;5127442;27;20562;-78
2023/01/05 08:42:53;;;;;;;6.22;1.23;;;;;;;9.40;100.00;99625.72;5136333;27;20050;-78
2023/01/05 08:45:19;;;;;;;7.00;1.40;;;;;;;9.19;100.00;99602.59;5147982;27;20448;-78
2023/01/05 08:47:46;;;;;;;5.03;1.40;;;;;;;9.32;100.00;99622.97;5147546;27;20039;-78
2023/01/05 08:50:12;;;;;;;5.13;1.20;;;;;;;9.39;100.00;99643.00;5147857;27;20047;-78
2023/01/05 08:52:41;;;;;;;5.13;1.45;;;;;;;9.33;100.00;99635.53;5138006;27;20066;-79
2023/01/05 08:55:08;;;;;;;8.63;1.50;;;;;;;9.21;100.00;99633.13;5140852;27;20528;-79
2023/01/05 08:57:35;;;;;;;2.33;1.08;;;;;;;9.37;100.00;99659.44;5119645;27;20627;-79
2023/01/05 09:00:02;;;;;;;6.20;0.90;;;;;;;9.27;100.00;99641.63;5122775;27;20051;-80
2023/01/05 09:02:28;;;;;;;7.88;0.93;;;;;;;9.32;100.00;99653.69;5121909;27;20040;-78
2023/01/05 09:04:55;;;;;;;8.65;1.35;;;;;;;9.33;100.00;99659.94;5122176;27;20051;-78
2023/01/05 09:07:23;;;;;;;5.10;1.20;;;;;;;9.38;100.00;99657.59;5124036;27;20133;-78
2023/01/05 09:09:51;;;;;;;3.35;1.23;;;;;;;9.34;100.00;99667.91;5119855;27;20158;-78
2023/01/05 09:12:17;;;;;;;8.38;2.25;;;;;;;9.32;100.00;99660.94;5121315;27;20059;-78
2023/01/05 09:14:44;;;;;;;5.15;1.30;;;;;;;9.28;100.00;99651.47;5112755;28;20048;-78
2023/01/05 09:17:10;;;;;;;10.25;1.95;;;;;;;9.28;100.00;99659.59;5116051;27;20047;-79
2023/01/05 09:19:37;;;;;;;8.57;1.83;;;;;;;9.17;100.00;99636.34;5125316;27;20119;-77
2023/01/05 09:22:04;;;;;;;4.60;1.35;;;;;;;9.13;100.00;99651.25;5133223;27;20047;-77
2023/01/05 09:24:30;;;;;;;5.07;1.55;;;;;;;9.17;100.00;99656.16;5132716;27;20047;-77
2023/01/05 09:26:58;;;;;;;4.85;1.38;;;;;;;9.30;100.00;99676.56;5123601;27;20048;-79
2023/01/05 09:29:25;;;;;;;8.07;1.45;;;;;;;9.29;100.00;99675.72;5131319;27;20039;-80
2023/01/05 09:31:51;;;;;;;9.80;1.80;;;;;;;9.34;100.00;99681.47;5130056;27;20050;-80
2023/01/05 09:34:18;;;;;;;2.17;1.00;;;;;;;9.41;100.00;99686.25;5113074;28;20197;-80
2023/01/05 09:36:45;;;;;;;10.75;1.50;;;;;;;9.29;100.00;99673.00;5113730;28;20051;-79
2023/01/05 09:39:11;;;;;;;5.18;1.80;;;;;;;9.43;100.00;99690.50;5114337;27;20051;-80
2023/01/05 09:41:41;;;;;;;6.18;1.25;;;;;;;9.28;100.00;99673.16;5125326;27;20478;-79
2023/01/05 09:44:20;;;;;;;8.65;1.98;;;;;;;9.27;100.00;99680.44;5114491;27;20047;-79
2023/01/05 09:46:50;;;;;;;11.48;1.55;;;;;;;9.27;100.00;99672.28;5125288;27;20047;-80
2023/01/05 09:49:21;;;;;;;11.30;1.48;;;;;;;9.30;100.00;99687.41;5133713;27;20047;-81
2023/01/05 09:51:58;;;;;;;6.13;1.88;;;;;;;9.36;100.00;99689.47;5133756;27;20070;-80
2023/01/05 09:54:28;;;;;;;12.95;1.48;;;;;;;9.34;100.00;99673.34;5133119;27;20116;-80
2023/01/05 09:56:55;;;;;;;7.60;1.58;;;;;;;9.44;100.00;99694.94;5132443;27;20411;-80
2023/01/05 09:59:28;;;;;;;6.75;1.42;;;;;;;9.37;100.00;99689.28;5125891;27;20051;-80
2023/01/05 10:01:58;;;;;;;6.72;1.30;;;;;;;9.53;100.00;99709.38;5121017;27;20058;-80
2023/01/05 10:04:27;;;;;;;12.07;2.05;;;;;;;9.49;100.00;99691.72;5112049;28;20059;-80
2023/01/05 10:06:58;;;;;;;14.55;1.60;;;;;;;9.50;100.00;99686.13;5128083;27;20059;-80
2023/01/05 10:09:35;;;;;;;8.10;1.98;;;;;;;9.63;100.00;99699.22;5132622;27;20054;-80
2023/01/05 10:15:02;;;;;;;12.98;1.23;;;;;;;9.65;100.00;99716.19;5128612;27;20066;-80
2023/01/05 10:17:38;;;;;;;9.65;1.40;;;;;;;9.48;100.00;99681.88;5125012;27;20118;-80
2023/01/05 10:20:14;;;;;;;9.25;1.83;;;;;;;9.70;100.00;99715.69;5120584;27;20503;-80
2023/01/05 10:22:50;;;;;;;14.60;1.52;;;;;;;9.48;100.00;99671.00;5112029;28;20051;-79
2023/01/05 10:25:22;;;;;;;9.93;1.83;;;;;;;9.61;100.00;99706.69;5112575;28;20048;-80
2023/01/05 10:27:58;;;;;;;14.38;2.53;;;;;;;9.47;100.00;99678.31;5120779;27;20065;-79
2023/01/05 10:30:41;;;;;;;9.20;2.13;;;;;;;9.49;100.00;99678.16;5117156;27;20044;-80
2023/01/05 10:33:15;;;;;;;7.85;1.60;;;;;;;9.51;100.00;99689.69;5121148;27;20054;-80
2023/01/05 10:35:58;;;;;;;11.20;2.20;;;;;;;9.44;100.00;99675.94;5130441;27;20043;-80
2023/01/05 10:38:39;;;;;;;7.97;1.95;;;;;;;9.47;100.00;99686.47;5130677;27;20478;-80
2023/01/05 10:41:14;;;;;;;9.05;1.77;;;;;;;9.44;100.00;99684.06;5130254;27;20054;-80
2023/01/05 10:43:56;;;;;;;18.60;3.58;;;;;;;9.43;100.00;99693.22;5120168;27;20053;-80
2023/01/05 10:46:24;;;;;;;9.07;2.10;;;;;;;9.56;100.00;99698.19;5121726;27;20496;-80
2023/01/05 10:48:50;;;;;;;9.82;2.28;;;;;;;9.42;100.00;99674.41;5129585;27;20066;-80
2023/01/05 10:51:18;;;;;;;7.70;1.95;;;;;;;9.52;100.00;99686.81;5130429;27;20057;-80
2023/01/05 10:53:45;;;;;;;12.88;2.38;;;;;;;9.46;100.00;99664.91;5129655;27;20061;-80
2023/01/05 10:56:14;;;;;;;19.15;2.38;;;;;;;9.45;100.00;99676.78;5128496;27;20035;-80
2023/01/05 10:58:43;;;;;;;14.40;1.87;;;;;;;9.63;100.00;99709.22;5121138;27;20047;-80
2023/01/05 11:01:22;;;;;;;9.65;1.75;;;;;;;9.52;100.00;99681.38;5128202;27;20300;-80
2023/01/05 11:03:55;;;;;;;11.07;3.33;;;;;;;9.56;100.00;99680.03;5128827;27;20419;-80
2023/01/05 11:06:24;;;;;;;11.52;2.58;;;;;;;9.67;100.00;99702.47;5130555;27;20046;-80
2023/01/05 11:08:51;;;;;;;17.90;1.95;;;;;;;9.71;100.00;99692.94;5130214;27;20387;-80
2023/01/05 11:11:23;;;;;;;17.73;3.20;;;;;;;9.64;100.00;99681.91;5117288;27;20044;-80
2023/01/05 11:13:55;;;;;;;7.47;1.90;;;;;;;9.70;100.00;99680.41;5116675;27;20048;-80
2023/01/05 11:16:25;;;;;;;8.63;1.85;;;;;;;9.72;100.00;99686.50;5110712;27;20063;-81
2023/01/05 11:18:56;;;;;;;4.25;1.40;;;;;;;9.77;100.00;99694.16;5123539;27;20046;-81
2023/01/05 11:21:24;;;;;;;11.48;1.58;;;;;;;9.68;100.00;99675.16;5118838;27;20068;-79
2023/01/05 11:23:53;;;;;;;15.07;2.42;;;;;;;9.65;100.00;99675.47;5114150;27;20487;-79
2023/01/05 11:26:31;;;;;;;11.32;3.03;;;;;;;9.75;100.00;99691.59;5125605;27;20078;-78
2023/01/05 11:29:13;;;;;;;14.40;2.50;;;;;;;9.82;100.00;99706.22;5118864;27;20043;-80
2023/01/05 11:31:43;;;;;;;10.15;2.25;;;;;;;9.72;100.00;99690.06;5118310;27;20035;-79
2023/01/05 11:34:20;;;;;;;12.73;2.00;;;;;;;9.80;100.00;99691.09;5108410;28;20474;-79
2023/01/05 11:36:52;;;;;;;14.60;2.47;;;;;;;9.70;100.00;99672.25;5109029;28;20047;-80
2023/01/05 11:39:25;;;;;;;7.72;1.55;;;;;;;9.73;100.00;99686.34;5109273;28;20047;-79
2023/01/05 11:42:03;;;;;;;10.02;2.35;;;;;;;9.88;100.00;99702.00;5108297;28;20052;-79
2023/01/05 11:44:31;;;;;;;11.13;2.00;;;;;;;9.74;100.00;99688.06;5113309;28;20454;-80
2023/01/05 11:46:58;;;;;;;11.68;2.22;;;;;;;9.85;100.00;99705.03;5111340;27;20047;-79
2023/01/05 11:49:26;;;;;;;11.20;1.58;;;;;;;9.77;100.00;99689.59;5113719;27;20414;-81
2023/01/05 11:51:53;;;;;;;14.60;2.13;;;;;;;9.76;100.00;99685.16;5115584;28;20532;-80
2023/01/05 11:54:33;;;;;;;9.50;1.98;;;;;;;9.69;100.00;99682.25;5128963;27;20043;-79
2023/01/05 11:57:15;;;;;;;9.80;1.60;;;;;;;9.75;100.00;99688.88;5124877;27;20103;-79
2023/01/05 11:59:42;;;;;;;11.10;1.92;;;;;;;9.81;100.00;99688.22;5125399;28;20155;-80
2023/01/05 12:02:32;;;;;;;11.52;2.00;;;;;;;9.80;100.00;99693.81;5129041;28;20059;-80
2023/01/05 12:07:58;;;;;;;14.65;2.90;;;;;;;9.79;100.00;99694.84;5098542;27;20391;-81
2023/01/05 12:10:43;;;;;;;13.70;2.38;;;;;;;9.65;100.00;99688.19;5102281;28;20283;-78
2023/01/05 12:13:27;;;;;;;12.10;2.47;;;;;;;9.78;100.00;99693.97;5105429;28;20059;-79
2023/01/05 12:16:04;;;;;;;15.98;2.20;;;;;;;9.68;99.92;99677.88;5104918;28;20058;-80
2023/01/05 12:19:00;;;;;;;14.88;2.40;;;;;;;9.72;99.55;99678.38;5105764;28;20459;-78
2023/01/05 12:21:31;;;;;;;11.57;2.20;;;;;;;9.62;100.00;99677.66;5104995;28;20558;-80
2023/01/05 12:24:29;;;;;;;9.57;1.83;;;;;;;9.62;100.00;99683.97;5103558;28;20052;-79
2023/01/05 12:27:09;;;;;;;14.80;2.70;;;;;;;9.77;100.00;99724.03;5087158;28;20056;-81
2023/01/05 12:30:23;;;;;;;10.43;2.40;;;;;;;9.65;100.00;99690.91;5105439;28;20051;-81
2023/01/05 12:33:07;;;;;;;7.47;2.00;;;;;;;9.70;99.73;99700.25;5082681;28;20063;-80
2023/01/05 12:35:55;;;;;;;11.60;2.47;;;;;;;9.64;98.73;99687.34;5100738;28;20147;-78
2023/01/05 12:38:47;;;;;;;19.80;3.85;;;;;;;9.67;100.00;99703.31;5097912;28;20144;-78
2023/01/05 12:41:34;;;;;;;15.63;2.45;;;;;;;9.64;100.00;99705.50;5098506;28;20056;-80
2023/01/05 12:44:23;;;;;;;16.52;2.78;;;;;;;9.62;100.00;99713.81;5087318;28;20056;-80
2023/01/05 12:47:00;;;;;;;12.63;2.67;;;;;;;9.51;100.00;99687.81;5100508;28;20056;-79
2023/01/05 12:49:35;;;;;;;14.23;2.22;;;;;;;9.61;100.00;99708.56;5098412;28;20040;-79
2023/01/05 12:52:06;;;;;;;14.02;2.55;;;;;;;9.61;100.00;99703.13;5100849;28;20123;-79
2023/01/05 12:54:41;;;;;;;9.25;2.97;;;;;;;9.50;100.00;99687.97;5105460;28;20475;-80
2023/01/05 12:57:14;;;;;;;15.45;3.17;;;;;;;9.59;99.68;99714.16;5088236;28;20262;-80
2023/01/05 12:59:50;;;;;;;12.98;2.90;;;;;;;9.49;100.00;99689.84;5098367;28;20063;-79
2023/01/05 13:02:30;;;;;;;17.35;2.55;;;;;;;9.57;100.00;99714.31;5103164;28;20058;-79
2023/01/05 13:05:03;;;;;;;12.13;3.13;;;;;;;9.48;100.00;99707.13;5105255;28;20075;-80
2023/01/05 13:07:33;;;;;;;13.70;2.55;;;;;;;9.52;100.00;99702.25;5103271;28;20047;-78
2023/01/05 13:10:03;;;;;;;10.05;2.28;;;;;;;9.53;100.00;99718.38;5104409;28;20054;-79
2023/01/05 13:12:32;;;;;;;;;;;;;;;9.56;100.00;99715.31;5120744;28;20058;-80
2023/01/05 13:15:13;;;;;;;14.23;2.55;;;;;;;9.51;100.00;99705.97;5119210;28;19919;-81
2023/01/05 13:17:44;;;;;;;15.90;2.53;;;;;;;9.42;100.00;99688.81;5098806;28;20051;-79
2023/01/05 13:20:24;;;;;;;12.82;2.33;;;;;;;9.35;100.00;99677.78;5102431;28;20048;-79
2023/01/05 13:22:53;;;;;;;;;;;;;;;9.53;100.00;99707.50;5094305;28;20063;-79
2023/01/05 13:25:22;;;;;;;13.25;1.80;;;;;;;9.36;100.00;99676.75;5090474;28;19973;-79
2023/01/05 13:27:50;;;;;;;11.57;2.83;;;;;;;9.55;100.00;99713.63;5090930;28;20114;-79
2023/01/05 13:30:23;;;;;;;12.23;2.28;;;;;;;9.47;100.00;99685.59;5091305;28;20146;-79
2023/01/05 13:33:03;;;;;;;13.43;2.45;;;;;;;9.64;100.00;99692.78;5089673;28;20059;-79
2023/01/05 13:35:45;;;;;;;13.60;2.28;;;;;;;9.64;100.00;99679.19;5083026;28;20119;-79
2023/01/05 13:38:31;;;;;;;10.70;2.08;;;;;;;9.66;100.00;99673.59;5083783;28;20048;-79
2023/01/05 13:41:13;;;;;;;13.18;2.55;;;;;;;9.82;100.00;99718.97;5071989;28;20052;-79
2023/01/05 13:44:06;;;;;;;16.27;2.97;;;;;;;9.73;100.00;99720.81;5084574;28;20184;-79
2023/01/05 13:46:52;;;;;;;8.30;2.47;;;;;;;9.73;100.00;99724.34;5085817;28;20456;-79
2023/01/05 13:49:38;;;;;;;12.63;2.80;;;;;;;9.60;100.00;99715.84;5082838;28;20050;-80
2023/01/05 13:52:16;;;;;;;13.52;3.20;;;;;;;9.47;100.00;99701.88;5079946;28;20090;-79
2023/01/05 13:54:47;;;;;;;9.68;2.75;;;;;;;9.57;100.00;99717.03;5090370;28;20048;-80
2023/01/05 13:57:19;;;;;;;14.05;2.95;;;;;;;9.64;100.00;99729.94;5076856;28;20040;-79
2023/01/05 13:59:51;;;;;;;8.55;2.00;;;;;;;9.57;100.00;99717.03;5085589;28;20055;-79
2023/01/05 14:02:31;;;;;;;17.23;2.97;;;;;;;9.60;100.00;99713.13;5089695;28;20295;-79
2023/01/05 14:04:57;;;;;;;;;;;;;;;9.63;100.00;99712.78;5088542;28;20442;-80
2023/01/05 14:07:24;;;;;;;10.05;2.45;;;;;;;9.53;100.00;99696.66;5083620;28;20711;-80
2023/01/05 14:09:54;;;;;;;20.52;2.50;;;;;;;9.52;100.00;99689.50;5085666;28;20128;-79
2023/01/05 14:12:43;;;;;;;12.27;2.42;;;;;;;9.59;100.00;99694.28;5078405;28;20059;-80
2023/01/05 14:15:44;;;;;;;12.38;2.85;;;;;;;9.67;100.00;99711.44;5085263;28;20044;-80
2023/01/05 14:18:11;;;;;;;14.30;2.70;;;;;;;9.53;100.00;99693.94;5026927;28;20053;-80
2023/01/05 14:20:43;;;;;;;19.58;2.83;;;;;;;9.60;100.00;99706.84;5026874;28;20045;-80
2023/01/05 14:23:49;;;;;;;20.10;3.75;;;;;;;9.73;100.00;99728.94;5058621;28;20047;-79
2023/01/05 14:26:16;;;;;;;12.93;3.15;;;;;;;9.59;100.00;99702.41;5078947;28;20491;-80
2023/01/05 14:28:46;;;;;;;14.50;2.05;;;;;;;9.57;99.69;99699.88;5087566;28;20170;-79
2023/01/05 14:31:42;;;;;;;;;;;;;;;9.77;97.53;99729.44;5090130;28;20418;-79
2023/01/05 14:34:20;;;;;;;15.73;3.20;;;;;;;9.80;95.76;99737.25;5089558;28;19930;-80
2023/01/05 14:37:02;;;;;;;15.65;3.38;;;;;;;9.70;95.82;99724.69;5089766;28;20044;-79
2023/01/05 14:39:34;;;;;;;17.50;2.75;;;;;;;9.67;94.97;99716.03;5086952;28;20077;-79
2023/01/05 14:42:06;;;;;;;14.57;2.60;;;;;;;9.73;95.65;99739.81;5087349;28;20062;-79
2023/01/05 14:44:42;;;;;;;10.45;2.05;;;;;;;9.72;95.82;99740.81;5089428;28;20040;-79
2023/01/05 14:47:10;;;;;;;16.20;3.13;;;;;;;9.64;97.32;99735.38;5089378;28;20501;-79
2023/01/05 14:49:42;;;;;;;11.65;2.70;;;;;;;9.61;98.02;99735.69;5088857;28;20414;-79
2023/01/05 14:52:16;;;;;;;8.48;2.33;;;;;;;9.69;96.75;99757.44;5089074;28;20109;-79
2023/01/05 14:55:16;;;;;;;12.13;2.78;;;;;;;9.74;97.23;99761.34;5089425;28;20051;-79
2023/01/05 14:57:49;;;;;;;8.10;1.90;;;;;;;9.58;98.86;99736.88;5084839;28;20501;-80
2023/01/05 15:00:19;;;;;;;9.75;2.10;;;;;;;9.62;97.86;99750.94;5089308;28;20058;-80
2023/01/05 15:02:55;;;;;;;9.25;2.22;;;;;;;9.64;98.61;99762.53;5088866;28;20079;-79
2023/01/05 15:05:24;;;;;;;21.38;3.45;;;;;;;9.67;99.21;99767.63;5089300;28;20131;-80
2023/01/05 15:08:06;;;;;;;9.85;2.03;;;;;;;9.48;100.00;99747.84;5088766;28;20050;-80
2023/01/05 15:10:49;;;;;;;12.48;2.33;;;;;;;9.44;100.00;99734.78;5087229;28;20070;-80
2023/01/05 15:13:36;;;;;;;11.95;2.50;;;;;;;9.48;100.00;99755.16;5076000;28;20071;-80
2023/01/05 15:16:12;;;;;;;10.82;2.35;;;;;;;9.46;100.00;99751.75;5088666;28;20198;-80
2023/01/05 15:18:56;;;;;;;14.10;3.08;;;;;;;9.44;100.00;99741.06;5088956;28;20269;-81
2023/01/05 15:21:48;;;;;;;18.90;2.38;;;;;;;9.38;100.00;99736.31;5089304;28;20044;-80
2023/01/05 15:24:40;;;;;;;19.45;4.03;;;;;;;9.48;100.00;99755.16;5086621;28;20052;-80
2023/01/05 15:27:30;;;;;;;17.02;3.08;;;;;;;9.36;100.00;99750.03;5071041;28;20050;-80
2023/01/05 15:30:17;;;;;;;13.18;2.85;;;;;;;9.37;100.00;99757.13;5088385;28;20060;-81
2023/01/05 15:32:45;;;;;;;20.90;3.22;;;;;;;9.47;100.00;99765.16;5083948;28;20483;-78
2023/01/05 15:35:16;;;;;;;21.92;2.45;;;;;;;9.40;100.00;99750.53;5088093;28;20052;-79
2023/01/05 15:37:47;;;;;;;13.40;2.45;;;;;;;9.41;100.00;99751.38;5088966;28;20040;-79
2023/01/05 15:40:28;;;;;;;21.35;3.17;;;;;;;9.46;100.00;99757.19;5086371;28;20123;-79
2023/01/05 15:42:57;;;;;;;15.13;3.47;;;;;;;9.55;100.00;99773.31;5086959;28;20044;-79
2023/01/05 15:45:27;;;;;;;13.07;2.90;;;;;;;9.50;100.00;99775.69;5088853;28;20062;-80
2023/01/05 15:47:55;;;;;;;10.43;2.63;;;;;;;9.45;100.00;99769.03;5085981;28;20047;-79
2023/01/05 15:50:24;;;;;;;12.60;2.70;;;;;;;9.29;100.00;99748.09;5084442;28;20084;-79
2023/01/05 15:52:54;;;;;;;19.33;3.03;;;;;;;9.41;100.00;99770.38;5089223;28;20055;-79
2023/01/05 15:55:21;;;;;;;14.10;3.25;;;;;;;9.41;100.00;99773.09;5088599;28;20075;-79
2023/01/05 15:57:53;;;;;;;13.95;3.17;;;;;;;9.35;100.00;99755.63;5088588;28;20052;-80
2023/01/05 16:00:22;;;;;;;18.08;2.85;;;;;;;9.29;100.00;99758.94;5087527;28;20047;-80
2023/01/05 16:02:49;;;;;;;21.20;4.25;;;;;;;9.38;100.00;99775.13;5084805;28;20052;-80
2023/01/05 16:05:17;;;;;;;16.90;2.92;;;;;;;9.42;100.00;99782.94;5080982;28;20396;-80
2023/01/05 16:07:47;;;;;;;13.60;3.30;;;;;;;9.35;100.00;99761.06;5088033;28;20054;-80
2023/01/05 16:10:21;;;;;;;11.68;4.22;;;;;;;9.29;100.00;99758.94;5088264;28;20058;-80
2023/01/05 16:12:50;;;;;;;13.95;3.72;;;;;;;9.40;100.00;99777.69;5087032;28;20055;-79
2023/01/05 16:15:22;;;;;;;14.50;3.10;;;;;;;9.33;100.00;99765.75;5087326;28;20050;-79
2023/01/05 16:17:52;;;;;;;14.50;3.10;;;;;;;9.42;100.00;99783.78;5087798;28;20063;-79
2023/01/05 16:20:20;;;;;;;10.68;2.83;;;;;;;9.34;100.00;99775.63;5088123;28;20055;-80
2023/01/05 16:22:52;;;;;;;11.48;2.58;;;;;;;9.45;100.00;99772.59;5087244;28;20085;-80
2023/01/05 16:25:22;;;;;;;17.50;2.70;;;;;;;9.44;100.00;99783.63;5084654;28;20047;-81
2023/01/05 16:27:57;;;;;;;11.95;3.00;;;;;;;9.47;100.00;99775.16;5085234;28;20554;-80
2023/01/05 16:30:29;;;;;;;13.98;2.85;;;;;;;9.47;100.00;99789.59;5088272;28;20056;-80
2023/01/05 16:32:57;;;;;;;11.30;2.55;;;;;;;9.32;100.00;99766.78;5086200;28;20052;-79
2023/01/05 16:35:32;;;;;;;12.77;2.60;;;;;;;9.31;100.00;99782.22;5081922;28;20052;-79
2023/01/05 16:38:23;;;;;;;18.25;4.10;;;;;;;9.35;100.00;99783.59;5079977;28;20047;-78
2023/01/05 16:41:08;;;;;;;11.93;2.90;;;;;;;9.19;100.00;99762.63;5077023;28;20100;-79
2023/01/05 16:43:40;;;;;;;12.40;3.25;;;;;;;9.31;100.00;99787.63;5088021;28;20150;-79
2023/01/05 16:46:34;;;;;;;11.15;3.28;;;;;;;9.38;100.00;99791.41;5086636;28;20521;-79
2023/01/05 16:49:06;;;;;;;10.90;3.22;;;;;;;9.30;100.00;99779.66;5087946;28;20048;-79
2023/01/05 16:51:39;;;;;;;15.35;3.70;;;;;;;9.33;100.00;99801.03;5087955;28;20052;-79
2023/01/05 16:54:13;;;;;;;16.45;3.55;;;;;;;9.22;100.00;99761.47;5090427;28;20051;-79
2023/01/05 16:56:51;;;;;;;15.23;3.83;;;;;;;9.12;100.00;99767.03;5089908;28;20123;-79
2023/01/05 16:59:44;;;;;;;16.77;3.90;;;;;;;9.25;100.00;99788.28;5090149;28;20101;-79
2023/01/05 17:02:29;;;;;;;17.20;3.15;;;;;;;9.03;100.00;99765.25;5091298;28;20062;-79
2023/01/05 17:04:57;;;;;;;16.35;5.50;;;;;;;9.21;100.00;99787.78;5066446;28;20056;-80
2023/01/05 17:07:26;;;;;;;18.38;8.00;;;;;;;9.24;100.00;99788.44;5080025;28;20075;-80
2023/01/05 17:09:53;;;;;;;12.35;4.18;;;;;;;9.11;100.00;99773.47;5082760;28;20056;-79
2023/01/05 17:12:25;;;;;;;15.23;4.40;;;;;;;9.09;100.00;99769.19;5084186;28;20070;-78
2023/01/05 17:14:51;;;;;;;16.88;4.05;;;;;;;9.20;100.00;99785.22;5089175;28;20056;-80
2023/01/05 17:17:18;;;;;;;16.58;3.97;;;;;;;9.09;100.00;99780.06;5092930;28;20048;-78
2023/01/05 17:19:45;;;;;;;15.68;3.83;;;;;;;9.10;100.00;99773.63;5088995;28;20127;-78
2023/01/05 17:22:11;;;;;;;14.75;4.30;;;;;;;9.09;100.00;99774.63;5090756;28;20051;-78
2023/01/05 17:24:38;;;;;;;29.05;7.38;;;;;;;9.07;100.00;99776.66;5091304;28;20434;-78
2023/01/05 17:27:05;;;;;;;23.20;6.55;;;;;;;8.96;100.00;99759.63;5089798;28;20078;-78
2023/01/05 17:29:35;;;;;;;25.40;6.10;;;;;;;9.09;100.00;99780.06;5079143;28;20415;-78
2023/01/05 17:32:01;;;;;;;14.90;4.97;;;;;;;8.87;100.00;99749.75;5080127;28;20048;-78
2023/01/05 17:34:28;;;;;;;14.48;3.72;;;;;;;8.86;100.00;99746.16;5082580;28;20059;-79
2023/01/05 17:36:56;;;;;;;25.30;5.40;;;;;;;8.89;100.00;99761.28;5085980;28;20136;-79
2023/01/05 17:39:24;;;;;;;17.25;5.95;;;;;;;8.89;100.00;99760.44;5088833;28;20063;-78
2023/01/05 17:41:51;;;;;;;16.90;3.85;;;;;;;8.97;100.00;99768.63;5090748;28;20495;-78
2023/01/05 17:44:17;;;;;;;15.52;3.70;;;;;;;8.93;100.00;99776.22;5092260;28;20048;-79
2023/01/05 17:46:47;;;;;;;11.20;3.10;;;;;;;8.89;100.00;99764.00;5083971;28;20048;-78
2023/01/05 17:49:15;;;;;;;18.40;3.75;;;;;;;8.75;100.00;99761.88;5089686;28;20044;-79
2023/01/05 17:51:42;;;;;;;10.00;3.90;;;;;;;8.96;100.00;99777.78;5086010;28;20063;-79
2023/01/05 17:54:08;;;;;;;14.30;4.43;;;;;;;8.81;100.00;99751.22;5089803;28;20062;-79
2023/01/05 17:56:35;;;;;;;15.88;4.32;;;;;;;8.88;100.00;99767.72;5089420;28;20063;-79
2023/01/05 17:59:02;;;;;;;10.77;3.95;;;;;;;8.84;100.00;99780.75;5082630;28;20121;-79
2023/01/05 18:01:29;;;;;;;12.52;3.95;;;;;;;8.77;100.00;99759.84;5089394;28;20147;-78
2023/01/05 18:03:57;;;;;;;21.80;4.78;;;;;;;8.71;100.00;99774.03;5085656;28;20068;-80
2023/01/05 18:06:23;;;;;;;17.33;5.07;;;;;;;8.68;100.00;99767.91;5088903;28;20422;-79
2023/01/05 18:08:50;;;;;;;13.57;3.28;;;;;;;8.66;100.00;99752.84;5076429;28;20044;-80
2023/01/05 18:11:17;;;;;;;14.48;3.92;;;;;;;8.60;100.00;99777.84;5089633;28;20052;-79
2023/01/05 18:13:43;;;;;;;14.75;3.92;;;;;;;8.36;100.00;99757.63;5086168;28;20055;-79
2023/01/05 18:16:12;;;;;;;21.10;4.60;;;;;;;8.41;100.00;99768.84;5088373;28;20043;-79
2023/01/05 18:18:41;;;;;;;14.32;3.22;;;;;;;8.35;100.00;99765.91;5086357;28;20036;-80
2023/01/05 18:21:09;;;;;;;13.95;4.22;;;;;;;8.26;100.00;99773.97;5087083;28;20040;-80
2023/01/05 18:23:36;;;;;;;24.67;4.18;;;;;;;8.06;100.00;99754.31;5086448;28;20051;-80
2023/01/05 18:26:03;;;;;;;17.38;4.05;;;;;;;8.04;100.00;99764.47;5089279;28;20044;-80
2023/01/05 18:28:30;;;;;;;22.02;5.30;;;;;;;8.01;100.00;99772.03;5087094;28;20036;-80
2023/01/05 18:30:57;;;;;;;18.95;3.97;;;;;;;7.72;100.00;99746.88;5081140;28;20052;-80
2023/01/05 18:33:23;;;;;;;12.02;3.47;;;;;;;7.64;100.00;99746.75;5087142;28;20487;-81
2023/01/05 18:35:50;;;;;;;16.13;3.72;;;;;;;7.80;100.00;99765.06;5082470;28;20048;-79
2023/01/05 18:38:18;;;;;;;10.30;3.40;;;;;;;7.64;100.00;99744.06;5084409;28;20053;-80
2023/01/05 18:40:47;;;;;;;15.93;3.30;;;;;;;7.59;100.00;99765.31;5083831;28;20044;-80
2023/01/05 18:43:13;;;;;;;19.38;4.38;;;;;;;7.63;100.00;99774.81;5083835;28;20481;-79
2023/01/05 18:45:40;;;;;;;15.38;3.70;;;;;;;7.49;100.00;99749.13;5070210;28;20076;-79
2023/01/05 18:48:06;;;;;;;18.15;4.13;;;;;;;7.70;100.00;99767.81;5079583;28;20316;-79
2023/01/05 18:50:33;;;;;;;16.48;3.60;;;;;;;7.64;100.00;99752.19;5084916;28;20054;-80
2023/01/05 18:52:59;;;;;;;14.18;3.92;;;;;;;7.50;100.00;99744.56;5087855;28;20142;-81
2023/01/05 18:55:30;;;;;;;7.70;3.08;;;;;;;7.46;100.00;99759.41;5089280;28;20050;-80
2023/01/05 18:57:57;;;;;;;18.40;3.80;;;;;;;7.43;100.00;99766.81;5080356;28;20056;-79
2023/01/05 19:00:23;;;;;;;12.38;4.10;;;;;;;7.43;100.00;99771.38;5089049;28;20626;-80
2023/01/05 19:02:50;;;;;;;21.05;5.38;;;;;;;7.35;100.00;99766.72;5084902;28;20489;-80
2023/01/05 19:05:17;;;;;;;15.00;5.30;;;;;;;7.41;100.00;99774.22;5079369;28;20593;-79
2023/01/05 19:07:43;;;;;;;19.85;3.92;;;;;;;7.33;100.00;99767.84;5076906;28;20055;-79
2023/01/05 19:10:10;;;;;;;13.88;3.67;;;;;;;7.23;100.00;99749.81;5098296;28;20076;-79
2023/01/05 19:12:37;;;;;;;13.57;3.15;;;;;;;7.20;100.00;99739.31;5088060;28;20514;-79
2023/01/05 19:15:05;;;;;;;19.55;4.28;;;;;;;7.18;100.00;99735.03;5087589;28;20055;-80
2023/01/05 19:17:33;;;;;;;18.15;3.17;;;;;;;7.40;100.00;99753.56;5095461;28;20232;-80
2023/01/05 19:19:59;;;;;;;10.20;2.70;;;;;;;7.36;100.00;99754.03;5085339;28;20044;-80
2023/01/05 19:22:26;;;;;;;16.63;3.88;;;;;;;7.26;100.00;99764.91;5080706;28;20048;-80
2023/01/05 19:24:52;;;;;;;14.77;2.72;;;;;;;7.35;100.00;99774.81;5082088;28;20040;-80
2023/01/05 19:27:20;;;;;;;10.10;2.60;;;;;;;7.33;100.00;99759.75;5087785;28;20079;-80
2023/01/05 19:29:48;;;;;;;11.90;2.45;;;;;;;7.32;100.00;99758.91;5088695;28;20052;-80
2023/01/05 19:32:15;;;;;;;14.85;3.25;;;;;;;7.45;100.00;99780.19;5085711;28;20146;-80
2023/01/05 19:34:43;;;;;;;10.43;3.83;;;;;;;7.48;100.00;99773.63;5085653;28;20066;-80
2023/01/05 19:37:09;;;;;;;6.82;2.15;;;;;;;7.39;100.00;99740.19;5087391;28;20127;-79
2023/01/05 19:39:36;;;;;;;19.40;3.67;;;;;;;7.48;100.00;99750.13;5088250;28;20044;-80
2023/01/05 19:42:03;;;;;;;15.10;3.42;;;;;;;7.50;100.00;99755.38;5085342;28;20050;-79
2023/01/05 19:44:29;;;;;;;17.58;3.17;;;;;;;7.48;100.00;99728.47;5085988;28;20771;-80
2023/01/05 19:46:57;;;;;;;19.17;3.25;;;;;;;7.49;100.00;99740.16;5082611;28;20502;-80